createdAt,value
2023-05-07T00:00:53.726Z,41.55
2023-05-07T00:03:23.993Z,40.05
2023-05-07T00:05:55.367Z,40.90
2023-05-07T00:08:25.444Z,37.65
2023-05-07T00:10:55.673Z,35.45
2023-05-07T00:13:25.666Z,40.25
2023-05-07T00:15:56.340Z,37.42
2023-05-07T00:18:26.439Z,32.60
2023-05-07T00:20:56.808Z,36.65
2023-05-07T00:23:26.815Z,36.00
2023-05-07T00:25:56.502Z,35.88
2023-05-07T00:28:26.518Z,33.35
2023-05-07T00:30:56.342Z,37.28
2023-05-07T00:33:26.315Z,35.70
2023-05-07T00:35:59.456Z,36.50
2023-05-07T00:38:29.506Z,33.97
2023-05-07T00:40:59.201Z,38.75
2023-05-07T00:43:30.212Z,36.15
2023-05-07T00:46:00.008Z,37.95
2023-05-07T00:48:30.671Z,37.60
2023-05-07T00:51:00.688Z,37.35
2023-05-07T00:53:30.874Z,36.97
2023-05-07T00:56:01.123Z,36.60
2023-05-07T00:58:30.957Z,33.22
2023-05-07T01:01:00.962Z,34.20
2023-05-07T01:03:30.737Z,35.00
2023-05-07T01:06:03.807Z,33.47
2023-05-07T01:08:35.370Z,37.85
2023-05-07T01:11:06.143Z,36.35
2023-05-07T01:13:37.981Z,32.97
2023-05-07T01:16:09.089Z,36.63
2023-05-07T01:18:39.330Z,29.85
2023-05-07T01:21:13.732Z,32.17
2023-05-07T01:23:45.167Z,37.38
2023-05-07T01:26:18.833Z,31.35
2023-05-07T01:28:49.459Z,29.92
2023-05-07T01:31:20.755Z,34.15
2023-05-07T01:33:52.268Z,35.00
2023-05-07T01:36:25.434Z,28.88
2023-05-07T01:38:55.971Z,30.90
2023-05-07T01:41:25.978Z,27.02
2023-05-07T01:43:57.646Z,27.58
2023-05-07T01:46:30.454Z,29.25
2023-05-07T01:49:01.271Z,27.85
2023-05-07T01:51:31.141Z,28.38
2023-05-07T01:54:01.247Z,35.70
2023-05-07T01:56:31.244Z,26.95
2023-05-07T01:59:02.024Z,28.35
2023-05-07T02:01:32.414Z,25.63
2023-05-07T02:04:02.787Z,25.30
2023-05-07T02:06:33.781Z,26.20
2023-05-07T02:09:08.245Z,30.38
2023-05-07T02:11:38.561Z,24.13
2023-05-07T02:14:08.440Z,25.55
2023-05-07T02:16:38.693Z,24.98
2023-05-07T02:19:08.915Z,23.08
2023-05-07T02:21:39.890Z,31.52
2023-05-07T02:24:12.895Z,26.40
2023-05-07T02:26:46.081Z,42.67
2023-05-07T02:29:16.207Z,25.52
2023-05-07T02:31:46.432Z,24.00
2023-05-07T02:34:16.854Z,24.85
2023-05-07T02:36:49.799Z,25.92
2023-05-07T02:39:23.381Z,25.38
2023-05-07T02:41:53.357Z,23.40
2023-05-07T02:44:23.126Z,31.80
2023-05-07T02:46:54.622Z,24.65
2023-05-07T02:49:25.424Z,27.17
2023-05-07T02:51:55.602Z,24.50
2023-05-07T02:54:30.382Z,23.92
2023-05-07T02:57:00.745Z,24.23
2023-05-07T02:59:31.166Z,23.08
2023-05-07T03:02:01.572Z,28.85
2023-05-07T03:04:31.517Z,24.90
2023-05-07T03:07:01.488Z,28.35
2023-05-07T03:09:31.287Z,27.70
2023-05-07T03:12:01.685Z,22.67
2023-05-07T03:14:31.749Z,30.63
2023-05-07T03:17:02.453Z,22.58
2023-05-07T03:19:33.150Z,23.70
2023-05-07T03:22:03.573Z,24.23
2023-05-07T03:24:33.636Z,23.27
2023-05-07T03:27:03.698Z,23.65
2023-05-07T03:29:33.588Z,24.23
2023-05-07T03:32:03.521Z,23.85
2023-05-07T03:34:34.009Z,27.42
2023-05-07T03:37:03.909Z,23.20
2023-05-07T03:39:34.680Z,22.23
2023-05-07T03:42:05.137Z,23.80
2023-05-07T03:44:39.322Z,21.50
2023-05-07T03:47:10.270Z,26.95
2023-05-07T03:49:40.870Z,24.48
2023-05-07T03:52:13.280Z,25.00
2023-05-07T03:54:43.333Z,21.90
2023-05-07T03:57:15.383Z,23.60
2023-05-07T03:59:45.466Z,26.27
2023-05-07T04:02:15.659Z,26.85
2023-05-07T04:04:45.774Z,24.15
2023-05-07T04:07:17.555Z,26.27
2023-05-07T04:09:51.788Z,22.88
2023-05-07T04:12:22.234Z,23.95
2023-05-07T04:14:52.327Z,24.00
2023-05-07T04:17:22.324Z,22.48
2023-05-07T04:19:52.258Z,22.17
2023-05-07T04:22:23.225Z,28.52
2023-05-07T04:24:53.829Z,22.00
2023-05-07T04:27:24.386Z,22.77
2023-05-07T04:29:54.113Z,24.45
2023-05-07T04:32:24.267Z,23.08
2023-05-07T04:34:55.398Z,22.65
2023-05-07T04:37:25.889Z,23.30
2023-05-07T04:39:56.088Z,31.17
2023-05-07T04:42:27.464Z,39.42
2023-05-07T04:45:01.130Z,46.92
2023-05-07T04:47:32.248Z,23.65
2023-05-07T04:50:03.872Z,20.25
2023-05-07T04:52:34.111Z,32.03
2023-05-07T04:55:04.263Z,18.90
2023-05-07T04:57:40.234Z,19.13
2023-05-07T05:00:11.886Z,20.88
2023-05-07T05:02:43.679Z,22.75
2023-05-07T05:05:17.145Z,20.92
2023-05-07T05:07:54.126Z,21.00
2023-05-07T05:10:25.434Z,20.92
2023-05-07T05:12:55.415Z,21.23
2023-05-07T05:15:26.789Z,19.55
2023-05-07T05:17:57.460Z,19.88
2023-05-07T05:20:27.670Z,19.88
2023-05-07T05:22:58.241Z,21.05
2023-05-07T05:25:28.464Z,19.45
2023-05-07T05:27:59.338Z,20.75
2023-05-07T05:30:29.510Z,21.58
2023-05-07T05:32:59.284Z,21.65
2023-05-07T05:35:30.961Z,22.67
2023-05-07T05:38:02.537Z,21.85
2023-05-07T05:40:32.575Z,21.00
2023-05-07T05:43:02.869Z,20.67
2023-05-07T05:45:34.218Z,33.08
2023-05-07T05:48:04.288Z,22.10
2023-05-07T05:50:34.991Z,29.58
2023-05-07T05:53:05.488Z,19.23
2023-05-07T05:55:36.710Z,22.55
2023-05-07T05:58:07.816Z,31.33
2023-05-07T06:00:42.403Z,22.60
2023-05-07T06:03:14.503Z,25.70
2023-05-07T06:05:45.635Z,23.25
2023-05-07T06:08:17.383Z,22.48
2023-05-07T06:10:47.723Z,22.38
2023-05-07T06:13:18.042Z,23.13
2023-05-07T06:15:48.404Z,22.48
2023-05-07T06:18:18.196Z,20.13
2023-05-07T06:20:48.343Z,20.20
2023-05-07T06:23:27.240Z,26.92
2023-05-07T06:25:57.557Z,22.17
2023-05-07T06:28:38.170Z,21.15
2023-05-07T06:31:17.597Z,20.20
2023-05-07T06:33:57.949Z,20.35
2023-05-07T06:36:33.916Z,22.65
2023-05-07T06:39:12.535Z,24.88
2023-05-07T06:41:42.686Z,24.10
2023-05-07T06:44:20.748Z,20.85
2023-05-07T06:47:01.529Z,20.67
2023-05-07T06:49:31.815Z,21.02
2023-05-07T06:52:01.672Z,20.55
2023-05-07T06:54:32.519Z,21.23
2023-05-07T06:57:03.161Z,23.02
2023-05-07T06:59:34.124Z,24.65
2023-05-07T07:02:04.354Z,21.13
2023-05-07T07:04:34.590Z,21.38
2023-05-07T07:07:08.822Z,23.20
2023-05-07T07:09:39.239Z,20.77
2023-05-07T07:12:14.821Z,23.20
2023-05-07T07:14:45.964Z,20.60
2023-05-07T07:17:16.941Z,20.20
2023-05-07T07:19:47.266Z,24.08
2023-05-07T07:22:17.375Z,21.15
2023-05-07T07:24:47.210Z,21.67
2023-05-07T07:27:21.887Z,20.98
2023-05-07T07:29:55.466Z,19.33
2023-05-07T07:32:29.979Z,20.65
2023-05-07T07:35:00.322Z,19.98
2023-05-07T07:37:33.827Z,19.45
2023-05-07T07:40:04.343Z,20.33
2023-05-07T07:42:35.787Z,20.35
2023-05-07T07:45:06.542Z,22.58
2023-05-07T07:47:39.866Z,20.58
2023-05-07T07:50:12.718Z,21.05
2023-05-07T07:52:45.765Z,21.55
2023-05-07T07:55:23.524Z,25.42
2023-05-07T07:57:56.338Z,20.20
2023-05-07T08:00:27.510Z,20.65
2023-05-07T08:02:59.865Z,20.63
2023-05-07T08:05:35.135Z,19.60
2023-05-07T08:08:08.460Z,20.50
2023-05-07T08:10:41.654Z,19.75
2023-05-07T08:13:20.613Z,19.55
2023-05-07T08:15:53.661Z,20.85
2023-05-07T08:18:23.776Z,18.52
2023-05-07T08:20:53.938Z,18.88
2023-05-07T08:23:26.642Z,21.63
2023-05-07T08:25:57.152Z,21.95
2023-05-07T08:28:27.519Z,20.13
2023-05-07T08:30:59.299Z,20.10
2023-05-07T08:33:30.237Z,22.50
2023-05-07T08:36:00.688Z,18.23
2023-05-07T08:38:31.118Z,18.67
2023-05-07T08:41:01.289Z,18.35
2023-05-07T08:43:36.119Z,18.85
2023-05-07T08:46:08.792Z,25.92
2023-05-07T08:48:43.814Z,21.48
2023-05-07T08:51:19.965Z,19.42
2023-05-07T08:53:51.943Z,20.50
2023-05-07T08:56:28.169Z,19.33
2023-05-07T08:59:01.060Z,19.65
2023-05-07T09:01:32.705Z,17.75
2023-05-07T09:04:06.551Z,19.17
2023-05-07T09:06:37.884Z,20.73
2023-05-07T09:09:08.141Z,18.33
2023-05-07T09:11:37.969Z,20.58
2023-05-07T09:14:09.538Z,18.08
2023-05-07T09:16:43.596Z,24.33
2023-05-07T09:19:14.012Z,18.02
2023-05-07T09:21:47.668Z,18.27
2023-05-07T09:24:19.789Z,19.38
2023-05-07T09:26:49.726Z,22.88
2023-05-07T09:29:20.374Z,18.88
2023-05-07T09:31:50.784Z,20.45
2023-05-07T09:34:21.538Z,20.88
2023-05-07T09:36:52.625Z,21.08
2023-05-07T09:39:22.979Z,19.05
2023-05-07T09:41:54.828Z,19.83
2023-05-07T09:44:34.444Z,18.92
2023-05-07T09:47:08.812Z,19.95
2023-05-07T09:49:48.006Z,20.10
2023-05-07T09:52:22.793Z,20.10
2023-05-07T09:54:58.434Z,19.38
2023-05-07T09:57:32.060Z,20.45
2023-05-07T10:00:06.863Z,24.25
2023-05-07T10:02:54.650Z,18.48
2023-05-07T10:05:34.112Z,22.15
2023-05-07T10:08:05.869Z,22.73
2023-05-07T10:10:40.896Z,18.80
2023-05-07T10:13:14.164Z,22.33
2023-05-07T10:15:51.996Z,21.48
2023-05-07T10:18:32.382Z,18.25
2023-05-07T10:21:18.819Z,20.88
2023-05-07T10:24:00.241Z,21.33
2023-05-07T10:26:33.898Z,20.33
2023-05-07T10:29:09.646Z,21.08
2023-05-07T10:32:11.453Z,20.75
2023-05-07T10:34:46.514Z,23.65
2023-05-07T10:37:17.243Z,19.48
2023-05-07T10:39:47.749Z,20.17
2023-05-07T10:42:19.618Z,19.38
2023-05-07T10:44:54.098Z,23.10
2023-05-07T10:47:28.451Z,21.48
2023-05-07T10:50:24.966Z,29.02
2023-05-07T10:53:26.728Z,21.05
2023-05-07T10:56:34.372Z,25.25
2023-05-07T10:59:34.531Z,41.15
2023-05-07T11:02:16.805Z,22.02
2023-05-07T11:05:26.023Z,22.42
2023-05-07T11:08:15.455Z,25.05
2023-05-07T11:11:06.510Z,22.38
2023-05-07T11:13:52.758Z,21.63
2023-05-07T11:16:45.458Z,24.42
2023-05-07T11:19:56.322Z,24.38
2023-05-07T11:22:46.007Z,27.35
2023-05-07T11:25:22.893Z,25.25
2023-05-07T11:28:00.631Z,24.77
2023-05-07T11:30:31.988Z,24.67
2023-05-07T11:33:02.971Z,27.55
2023-05-07T11:35:35.613Z,29.60
2023-05-07T11:38:09.830Z,33.90
2023-05-07T11:40:53.220Z,42.28
2023-05-07T11:43:23.324Z,29.83
2023-05-07T11:45:54.367Z,36.80
2023-05-07T11:48:25.436Z,29.65
2023-05-07T11:50:57.406Z,31.65
2023-05-07T11:53:37.924Z,28.42
2023-05-07T11:56:13.537Z,33.92
2023-05-07T11:58:45.257Z,27.67
2023-05-07T12:01:16.618Z,30.65
2023-05-07T12:03:48.824Z,30.20
2023-05-07T12:06:19.996Z,29.13
2023-05-07T12:08:50.271Z,36.38
2023-05-07T12:11:28.633Z,27.17
2023-05-07T12:13:59.843Z,22.35
2023-05-07T12:16:30.582Z,25.63
2023-05-07T12:19:01.816Z,30.92
2023-05-07T12:21:35.153Z,30.08
2023-05-07T12:24:05.303Z,25.40
2023-05-07T12:26:39.917Z,22.90
2023-05-07T12:29:10.644Z,28.90
2023-05-07T12:31:44.389Z,23.05
2023-05-07T12:34:15.053Z,24.02
2023-05-07T12:36:47.687Z,25.33
2023-05-07T12:39:17.865Z,36.45
2023-05-07T12:42:01.311Z,23.20
2023-05-07T12:44:36.983Z,27.63
2023-05-07T12:47:07.038Z,22.33
2023-05-07T12:49:41.263Z,31.70
2023-05-07T12:52:13.320Z,28.08
2023-05-07T12:54:43.220Z,24.67
2023-05-07T12:57:13.515Z,23.75
2023-05-07T12:59:44.826Z,26.83
2023-05-07T13:02:14.720Z,25.00
2023-05-07T13:04:45.012Z,26.38
2023-05-07T13:07:15.056Z,32.33
2023-05-07T13:09:44.779Z,34.63
2023-05-07T13:12:14.607Z,29.70
2023-05-07T13:14:44.174Z,29.52
2023-05-07T13:17:14.201Z,32.35
2023-05-07T13:19:43.842Z,41.25
2023-05-07T13:22:13.806Z,36.53
2023-05-07T13:24:45.526Z,31.95
2023-05-07T13:27:15.530Z,27.52
2023-05-07T13:29:46.842Z,34.08
2023-05-07T13:32:16.556Z,24.38
2023-05-07T13:34:46.611Z,25.55
2023-05-07T13:37:16.241Z,27.90
2023-05-07T13:39:47.016Z,26.13
2023-05-07T13:42:16.634Z,26.02
2023-05-07T13:44:46.824Z,24.15
2023-05-07T13:47:19.531Z,23.55
2023-05-07T13:49:51.985Z,24.65
2023-05-07T13:52:22.916Z,24.73
2023-05-07T13:54:54.748Z,29.50
2023-05-07T13:57:24.622Z,29.77
2023-05-07T13:59:54.210Z,30.80
2023-05-07T14:02:24.315Z,31.80
2023-05-07T14:04:53.995Z,25.52
2023-05-07T14:07:23.819Z,25.45
2023-05-07T14:09:53.496Z,25.73
2023-05-07T14:12:23.435Z,26.95
2023-05-07T14:14:56.040Z,29.00
2023-05-07T14:17:27.812Z,24.75
2023-05-07T14:19:57.873Z,26.63
2023-05-07T14:22:27.450Z,24.95
2023-05-07T14:25:06.323Z,27.00
2023-05-07T14:27:37.830Z,23.65
2023-05-07T14:30:08.572Z,23.48
2023-05-07T14:32:38.701Z,25.00
2023-05-07T14:35:08.497Z,23.77
2023-05-07T14:37:39.515Z,29.05
2023-05-07T14:40:10.211Z,32.97
2023-05-07T14:42:43.046Z,25.80
2023-05-07T14:45:16.107Z,24.65
2023-05-07T14:47:46.191Z,25.45
2023-05-07T14:50:15.893Z,24.70
2023-05-07T14:52:45.710Z,26.00
2023-05-07T14:55:15.644Z,27.13
2023-05-07T14:57:45.575Z,26.38
2023-05-07T15:00:15.959Z,30.52
2023-05-07T15:02:46.004Z,30.90
2023-05-07T15:05:19.977Z,48.22
2023-05-07T15:07:50.062Z,30.42
2023-05-07T15:10:20.556Z,26.92
2023-05-07T15:12:50.216Z,32.80
2023-05-07T15:15:20.310Z,31.58
2023-05-07T15:17:50.696Z,26.17
2023-05-07T15:20:20.827Z,32.72
2023-05-07T15:22:50.493Z,27.67
2023-05-07T15:25:20.721Z,33.53
2023-05-07T15:27:51.087Z,33.00
2023-05-07T15:30:22.429Z,29.42
2023-05-07T15:32:53.220Z,32.78
2023-05-07T15:35:24.372Z,29.30
2023-05-07T15:38:01.076Z,29.80
2023-05-07T15:40:31.208Z,28.35
2023-05-07T15:43:00.878Z,28.00
2023-05-07T15:45:36.152Z,36.67
2023-05-07T15:48:09.281Z,30.38
2023-05-07T15:50:39.939Z,32.67
2023-05-07T15:53:10.271Z,31.35
2023-05-07T15:55:40.515Z,27.77
2023-05-07T15:58:10.091Z,30.77
2023-05-07T16:00:42.653Z,29.90
2023-05-07T16:03:13.080Z,28.42
2023-05-07T16:05:42.995Z,31.95
2023-05-07T16:08:13.013Z,29.23
2023-05-07T16:10:42.644Z,28.73
2023-05-07T16:13:13.252Z,30.70
2023-05-07T16:15:43.397Z,30.50
2023-05-07T16:18:13.885Z,29.77
2023-05-07T16:20:44.620Z,29.50
2023-05-07T16:23:14.727Z,30.00
2023-05-07T16:25:44.659Z,31.50
2023-05-07T16:28:18.234Z,29.90
2023-05-07T16:30:48.206Z,32.13
2023-05-07T16:33:17.823Z,29.38
2023-05-07T16:35:53.412Z,29.05
2023-05-07T16:38:23.241Z,28.88
2023-05-07T16:40:52.971Z,29.77
2023-05-07T16:43:23.623Z,31.60
2023-05-07T16:45:54.027Z,30.42
2023-05-07T16:48:23.974Z,31.73
2023-05-07T16:50:54.036Z,28.75
2023-05-07T16:53:23.689Z,27.95
2023-05-07T16:55:57.708Z,29.52
2023-05-07T16:58:29.556Z,29.63
2023-05-07T17:00:59.340Z,29.65
2023-05-07T17:03:30.438Z,28.50
2023-05-07T17:06:01.883Z,28.50
2023-05-07T17:08:31.792Z,28.92
2023-05-07T17:11:01.363Z,29.33
2023-05-07T17:13:31.412Z,29.90
2023-05-07T17:16:01.168Z,30.02
2023-05-07T17:18:31.042Z,28.17
2023-05-07T17:21:00.904Z,31.77
2023-05-07T17:23:30.957Z,34.45
2023-05-07T17:26:00.624Z,35.17
2023-05-07T17:28:31.982Z,31.75
2023-05-07T17:31:03.274Z,30.38
2023-05-07T17:33:36.041Z,29.75
2023-05-07T17:36:06.270Z,30.65
2023-05-07T17:38:36.337Z,29.15
2023-05-07T17:41:06.137Z,28.23
2023-05-07T17:43:35.738Z,28.80
2023-05-07T17:46:05.704Z,28.05
2023-05-07T17:48:35.355Z,27.98
2023-05-07T17:51:06.002Z,28.45
2023-05-07T17:53:35.616Z,31.20
2023-05-07T17:56:05.697Z,28.02
2023-05-07T17:58:39.162Z,30.02
2023-05-07T18:01:24.670Z,28.65
2023-05-07T18:03:54.408Z,31.95
2023-05-07T18:06:24.740Z,29.30
2023-05-07T18:08:55.843Z,29.00
2023-05-07T18:11:26.354Z,30.75
2023-05-07T18:13:56.004Z,30.85
2023-05-07T18:16:25.836Z,35.47
2023-05-07T18:18:56.160Z,31.33
2023-05-07T18:21:26.168Z,28.85
2023-05-07T18:23:55.808Z,29.42
2023-05-07T18:26:25.710Z,28.88
2023-05-07T18:28:56.103Z,31.60
2023-05-07T18:31:25.949Z,29.58
2023-05-07T18:33:57.358Z,31.42
2023-05-07T18:36:28.406Z,30.50
2023-05-07T18:38:58.314Z,33.97
2023-05-07T18:41:28.061Z,30.25
2023-05-07T18:43:58.108Z,30.67
2023-05-07T18:46:27.830Z,30.33
2023-05-07T18:48:58.023Z,30.60
2023-05-07T18:51:28.791Z,31.60
2023-05-07T18:54:03.574Z,30.20
2023-05-07T18:56:33.698Z,30.23
2023-05-07T18:59:03.374Z,29.95
2023-05-07T19:01:33.264Z,28.83
2023-05-07T19:04:02.979Z,28.85
2023-05-07T19:06:33.614Z,28.13
2023-05-07T19:09:04.009Z,29.48
2023-05-07T19:11:33.847Z,30.92
2023-05-07T19:14:04.755Z,31.15
2023-05-07T19:16:35.169Z,29.00
2023-05-07T19:19:05.084Z,29.40
2023-05-07T19:21:35.080Z,30.05
2023-05-07T19:24:04.781Z,29.70
2023-05-07T19:26:36.373Z,29.83
2023-05-07T19:29:17.287Z,30.48
2023-05-07T19:31:48.285Z,31.10
2023-05-07T19:34:18.024Z,30.95
2023-05-07T19:36:47.899Z,29.60
2023-05-07T19:39:18.583Z,31.58
2023-05-07T19:41:48.608Z,31.05
2023-05-07T19:44:18.257Z,31.73
2023-05-07T19:46:49.270Z,32.08
2023-05-07T19:49:19.375Z,31.77
2023-05-07T19:51:49.649Z,30.45
2023-05-07T19:54:19.309Z,40.33
2023-05-07T19:56:49.258Z,32.45
2023-05-07T19:59:18.940Z,30.58
2023-05-07T20:01:49.002Z,31.83
2023-05-07T20:04:18.647Z,30.13
2023-05-07T20:06:48.440Z,31.85
2023-05-07T20:09:18.097Z,30.92
2023-05-07T20:11:48.136Z,31.00
2023-05-07T20:14:17.671Z,31.23
2023-05-07T20:16:47.469Z,29.75
2023-05-07T20:19:17.253Z,31.77
2023-05-07T20:21:47.288Z,31.17
2023-05-07T20:24:18.261Z,33.38
2023-05-07T20:26:48.676Z,33.83
2023-05-07T20:29:18.936Z,34.58
2023-05-07T20:31:49.075Z,33.85
2023-05-07T20:34:18.699Z,32.45
2023-05-07T20:36:48.741Z,33.78
2023-05-07T20:39:18.470Z,32.78
2023-05-07T20:41:48.721Z,33.35
2023-05-07T20:44:18.789Z,32.60
2023-05-07T20:46:49.205Z,31.17
2023-05-07T20:49:19.022Z,33.70
2023-05-07T20:51:49.115Z,31.85
2023-05-07T20:54:19.222Z,36.97
2023-05-07T20:56:49.085Z,37.63
2023-05-07T20:59:18.798Z,33.85
2023-05-07T21:01:48.899Z,36.33
2023-05-07T21:04:18.924Z,33.45
2023-05-07T21:06:48.885Z,32.35
2023-05-07T21:09:18.495Z,32.33
2023-05-07T21:11:48.523Z,30.23
2023-05-07T21:14:18.128Z,30.52
2023-05-07T21:16:48.266Z,31.98
2023-05-07T21:19:17.944Z,34.30
2023-05-07T21:21:47.934Z,30.17
2023-05-07T21:24:17.614Z,30.23
2023-05-07T21:26:47.477Z,31.25
2023-05-07T21:29:17.260Z,31.10
2023-05-07T21:31:47.326Z,30.55
2023-05-07T21:34:17.260Z,30.83
2023-05-07T21:36:47.106Z,30.48
2023-05-07T21:39:16.842Z,28.40
2023-05-07T21:41:46.944Z,31.65
2023-05-07T21:44:16.698Z,29.88
2023-05-07T21:46:46.615Z,31.65
2023-05-07T21:49:16.452Z,34.55
2023-05-07T21:51:46.529Z,32.38
2023-05-07T21:54:17.398Z,30.35
2023-05-07T21:56:48.765Z,30.60
2023-05-07T21:59:20.170Z,30.35
2023-05-07T22:01:50.151Z,33.08
2023-05-07T22:04:20.204Z,29.73
2023-05-07T22:06:49.916Z,30.40
2023-05-07T22:09:19.903Z,34.95
2023-05-07T22:11:49.602Z,32.13
2023-05-07T22:14:21.100Z,31.80
2023-05-07T22:16:51.412Z,29.90
2023-05-07T22:19:21.309Z,30.58
2023-05-07T22:21:51.332Z,32.00
2023-05-07T22:24:21.075Z,29.67
2023-05-07T22:26:50.885Z,31.23
2023-05-07T22:29:22.140Z,31.73
2023-05-07T22:31:53.037Z,34.90
2023-05-07T22:34:22.723Z,31.40
2023-05-07T22:36:52.499Z,34.72
2023-05-07T22:39:22.303Z,31.58
2023-05-07T22:41:52.392Z,34.70
2023-05-07T22:44:21.971Z,33.10
2023-05-07T22:46:51.697Z,34.35
2023-05-07T22:49:21.359Z,32.50
2023-05-07T22:51:51.329Z,33.35
2023-05-07T22:54:21.396Z,32.78
2023-05-07T22:56:54.024Z,33.20
2023-05-07T22:59:24.058Z,35.95
2023-05-07T23:01:53.874Z,32.90
2023-05-07T23:04:24.066Z,33.63
2023-05-07T23:06:53.768Z,34.45
2023-05-07T23:09:23.601Z,32.78
2023-05-07T23:11:53.163Z,37.30
2023-05-07T23:14:24.434Z,35.15
2023-05-07T23:16:54.528Z,33.63
2023-05-07T23:19:24.476Z,31.52
2023-05-07T23:21:54.749Z,31.95
2023-05-07T23:24:24.390Z,32.05
2023-05-07T23:26:54.268Z,33.10
2023-05-07T23:29:23.951Z,42.17
2023-05-07T23:31:54.673Z,43.92
2023-05-07T23:34:25.288Z,38.50
2023-05-07T23:36:55.504Z,33.80
2023-05-07T23:39:25.636Z,33.63
2023-05-07T23:41:55.314Z,37.15
2023-05-07T23:44:25.143Z,35.22
2023-05-07T23:46:55.428Z,36.15
2023-05-07T23:49:26.452Z,38.38
2023-05-07T23:51:56.294Z,40.75
2023-05-07T23:54:26.497Z,39.90
2023-05-07T23:56:56.516Z,42.45
2023-05-07T23:59:26.551Z,36.92
